sensor_id;sensor_type;location;lat;lon;timestamp;P1;durP1;ratioP1;P2;durP2;ratioP2
18507;SDS011;9383;50.928;12.116;2023-04-12T00:00:05;2.17;;;1.98;;
18507;SDS011;9383;50.928;12.116;2023-04-12T00:02:35;3.35;;;2.30;;
18507;SDS011;9383;50.928;12.116;2023-04-12T00:05:04;2.63;;;2.10;;
18507;SDS011;9383;50.928;12.116;2023-04-12T00:07:31;3.20;;;2.10;;
18507;SDS011;9383;50.928;12.116;2023-04-12T00:09:58;2.63;;;2.28;;
18507;SDS011;9383;50.928;12.116;2023-04-12T00:12:24;1.75;;;1.65;;
18507;SDS011;9383;50.928;12.116;2023-04-12T00:14:51;1.98;;;1.83;;
18507;SDS011;9383;50.928;12.116;2023-04-12T00:17:17;2.05;;;1.92;;
18507;SDS011;9383;50.928;12.116;2023-04-12T00:19:43;1.85;;;1.75;;
18507;SDS011;9383;50.928;12.116;2023-04-12T00:22:11;2.58;;;2.15;;
18507;SDS011;9383;50.928;12.116;2023-04-12T00:24:39;3.92;;;2.40;;
18507;SDS011;9383;50.928;12.116;2023-04-12T00:27:07;6.38;;;2.38;;
18507;SDS011;9383;50.928;12.116;2023-04-12T00:29:34;2.35;;;2.15;;
18507;SDS011;9383;50.928;12.116;2023-04-12T00:32:00;2.30;;;2.15;;
18507;SDS011;9383;50.928;12.116;2023-04-12T00:34:28;2.50;;;1.75;;
18507;SDS011;9383;50.928;12.116;2023-04-12T00:36:54;1.98;;;1.70;;
18507;SDS011;9383;50.928;12.116;2023-04-12T00:39:21;2.25;;;1.90;;
18507;SDS011;9383;50.928;12.116;2023-04-12T00:41:47;2.45;;;1.98;;
18507;SDS011;9383;50.928;12.116;2023-04-12T00:44:15;3.28;;;2.08;;
18507;SDS011;9383;50.928;12.116;2023-04-12T00:46:42;2.22;;;2.03;;
18507;SDS011;9383;50.928;12.116;2023-04-12T00:49:10;2.13;;;1.95;;
18507;SDS011;9383;50.928;12.116;2023-04-12T00:51:38;2.97;;;2.05;;
18507;SDS011;9383;50.928;12.116;2023-04-12T00:54:05;2.00;;;1.80;;
18507;SDS011;9383;50.928;12.116;2023-04-12T00:56:32;1.80;;;1.70;;
18507;SDS011;9383;50.928;12.116;2023-04-12T00:58:59;1.85;;;1.65;;
18507;SDS011;9383;50.928;12.116;2023-04-12T01:01:26;2.08;;;1.98;;
18507;SDS011;9383;50.928;12.116;2023-04-12T01:03:53;3.05;;;2.22;;
18507;SDS011;9383;50.928;12.116;2023-04-12T01:06:41;2.13;;;1.92;;
18507;SDS011;9383;50.928;12.116;2023-04-12T01:09:43;2.13;;;2.00;;
18507;SDS011;9383;50.928;12.116;2023-04-12T01:17:29;2.10;;;1.92;;
18507;SDS011;9383;50.928;12.116;2023-04-12T01:20:10;2.13;;;1.92;;
18507;SDS011;9383;50.928;12.116;2023-04-12T01:22:46;1.98;;;1.77;;
18507;SDS011;9383;50.928;12.116;2023-04-12T01:25:36;2.08;;;1.80;;
18507;SDS011;9383;50.928;12.116;2023-04-12T01:28:14;4.68;;;2.00;;
18507;SDS011;9383;50.928;12.116;2023-04-12T01:30:45;3.15;;;2.13;;
18507;SDS011;9383;50.928;12.116;2023-04-12T01:33:15;3.67;;;2.05;;
18507;SDS011;9383;50.928;12.116;2023-04-12T01:35:42;2.67;;;2.08;;
18507;SDS011;9383;50.928;12.116;2023-04-12T01:38:10;2.00;;;1.90;;
18507;SDS011;9383;50.928;12.116;2023-04-12T01:40:38;2.60;;;2.40;;
18507;SDS011;9383;50.928;12.116;2023-04-12T01:45:35;2.53;;;2.30;;
18507;SDS011;9383;50.928;12.116;2023-04-12T01:48:03;2.20;;;2.00;;
18507;SDS011;9383;50.928;12.116;2023-04-12T01:50:33;2.40;;;2.20;;
18507;SDS011;9383;50.928;12.116;2023-04-12T01:53:38;2.35;;;2.05;;
18507;SDS011;9383;50.928;12.116;2023-04-12T01:56:14;4.72;;;2.25;;
18507;SDS011;9383;50.928;12.116;2023-04-12T01:58:43;4.15;;;2.30;;
18507;SDS011;9383;50.928;12.116;2023-04-12T02:01:13;2.70;;;2.05;;
18507;SDS011;9383;50.928;12.116;2023-04-12T02:03:42;4.43;;;2.45;;
18507;SDS011;9383;50.928;12.116;2023-04-12T02:06:10;2.95;;;1.95;;
18507;SDS011;9383;50.928;12.116;2023-04-12T02:08:38;2.97;;;2.40;;
18507;SDS011;9383;50.928;12.116;2023-04-12T02:11:10;2.35;;;2.15;;
18507;SDS011;9383;50.928;12.116;2023-04-12T02:13:39;3.13;;;2.08;;
18507;SDS011;9383;50.928;12.116;2023-04-12T02:16:06;3.78;;;2.15;;
18507;SDS011;9383;50.928;12.116;2023-04-12T02:18:35;1.77;;;1.67;;
18507;SDS011;9383;50.928;12.116;2023-04-12T02:21:02;2.78;;;2.28;;
18507;SDS011;9383;50.928;12.116;2023-04-12T02:23:28;2.47;;;1.92;;
18507;SDS011;9383;50.928;12.116;2023-04-12T02:25:55;2.38;;;2.17;;
18507;SDS011;9383;50.928;12.116;2023-04-12T02:28:21;2.65;;;2.03;;
18507;SDS011;9383;50.928;12.116;2023-04-12T02:30:48;2.22;;;1.80;;
18507;SDS011;9383;50.928;12.116;2023-04-12T02:33:17;3.15;;;1.90;;
18507;SDS011;9383;50.928;12.116;2023-04-12T02:35:50;2.20;;;2.00;;
18507;SDS011;9383;50.928;12.116;2023-04-12T02:38:16;1.80;;;1.70;;
18507;SDS011;9383;50.928;12.116;2023-04-12T02:40:43;4.38;;;2.47;;
18507;SDS011;9383;50.928;12.116;2023-04-12T02:43:09;2.35;;;2.15;;
18507;SDS011;9383;50.928;12.116;2023-04-12T02:45:36;2.78;;;2.25;;
18507;SDS011;9383;50.928;12.116;2023-04-12T02:48:03;2.88;;;2.20;;
18507;SDS011;9383;50.928;12.116;2023-04-12T02:50:30;3.35;;;2.53;;
18507;SDS011;9383;50.928;12.116;2023-04-12T02:52:56;3.45;;;2.28;;
18507;SDS011;9383;50.928;12.116;2023-04-12T02:55:23;5.10;;;2.33;;
18507;SDS011;9383;50.928;12.116;2023-04-12T02:57:50;3.22;;;2.20;;
18507;SDS011;9383;50.928;12.116;2023-04-12T03:00:16;2.78;;;2.17;;
18507;SDS011;9383;50.928;12.116;2023-04-12T03:02:44;2.67;;;2.05;;
18507;SDS011;9383;50.928;12.116;2023-04-12T03:05:10;2.25;;;2.05;;
18507;SDS011;9383;50.928;12.116;2023-04-12T03:07:37;2.20;;;2.00;;
18507;SDS011;9383;50.928;12.116;2023-04-12T03:10:04;3.72;;;2.13;;
18507;SDS011;9383;50.928;12.116;2023-04-12T03:12:33;2.03;;;1.90;;
18507;SDS011;9383;50.928;12.116;2023-04-12T03:14:59;2.20;;;2.00;;
18507;SDS011;9383;50.928;12.116;2023-04-12T03:17:26;2.08;;;1.90;;
18507;SDS011;9383;50.928;12.116;2023-04-12T03:19:53;3.58;;;2.20;;
18507;SDS011;9383;50.928;12.116;2023-04-12T03:22:20;4.15;;;2.30;;
18507;SDS011;9383;50.928;12.116;2023-04-12T03:24:47;2.47;;;2.00;;
18507;SDS011;9383;50.928;12.116;2023-04-12T03:27:14;3.22;;;2.13;;
18507;SDS011;9383;50.928;12.116;2023-04-12T03:29:40;2.28;;;1.92;;
18507;SDS011;9383;50.928;12.116;2023-04-12T03:32:06;2.22;;;1.80;;
18507;SDS011;9383;50.928;12.116;2023-04-12T03:34:33;2.33;;;2.13;;
18507;SDS011;9383;50.928;12.116;2023-04-12T03:37:00;2.72;;;1.80;;
18507;SDS011;9383;50.928;12.116;2023-04-12T03:39:27;2.13;;;1.92;;
18507;SDS011;9383;50.928;12.116;2023-04-12T03:41:54;1.88;;;1.77;;
18507;SDS011;9383;50.928;12.116;2023-04-12T03:44:20;3.20;;;2.00;;
18507;SDS011;9383;50.928;12.116;2023-04-12T03:46:47;2.10;;;1.90;;
18507;SDS011;9383;50.928;12.116;2023-04-12T03:49:14;2.00;;;1.90;;
18507;SDS011;9383;50.928;12.116;2023-04-12T03:51:41;2.92;;;1.92;;
18507;SDS011;9383;50.928;12.116;2023-04-12T03:54:08;2.92;;;1.90;;
18507;SDS011;9383;50.928;12.116;2023-04-12T03:56:38;3.08;;;2.45;;
18507;SDS011;9383;50.928;12.116;2023-04-12T03:59:05;2.13;;;1.92;;
18507;SDS011;9383;50.928;12.116;2023-04-12T04:01:34;2.42;;;2.22;;
18507;SDS011;9383;50.928;12.116;2023-04-12T04:04:01;2.70;;;1.90;;
18507;SDS011;9383;50.928;12.116;2023-04-12T04:06:28;2.90;;;2.15;;
18507;SDS011;9383;50.928;12.116;2023-04-12T04:08:55;2.75;;;2.03;;
18507;SDS011;9383;50.928;12.116;2023-04-12T04:11:22;3.47;;;1.95;;
18507;SDS011;9383;50.928;12.116;2023-04-12T04:13:50;2.25;;;2.05;;
18507;SDS011;9383;50.928;12.116;2023-04-12T04:16:16;2.22;;;1.92;;
18507;SDS011;9383;50.928;12.116;2023-04-12T04:18:42;2.05;;;1.85;;
18507;SDS011;9383;50.928;12.116;2023-04-12T04:21:09;3.67;;;2.33;;
18507;SDS011;9383;50.928;12.116;2023-04-12T04:23:36;4.00;;;1.90;;
18507;SDS011;9383;50.928;12.116;2023-04-12T04:26:09;2.65;;;1.90;;
18507;SDS011;9383;50.928;12.116;2023-04-12T04:28:36;2.60;;;2.35;;
18507;SDS011;9383;50.928;12.116;2023-04-12T04:31:06;2.80;;;2.28;;
18507;SDS011;9383;50.928;12.116;2023-04-12T04:33:35;2.92;;;2.08;;
18507;SDS011;9383;50.928;12.116;2023-04-12T04:36:02;3.10;;;2.33;;
18507;SDS011;9383;50.928;12.116;2023-04-12T04:38:29;2.00;;;1.90;;
18507;SDS011;9383;50.928;12.116;2023-04-12T04:40:59;2.17;;;1.95;;
18507;SDS011;9383;50.928;12.116;2023-04-12T04:43:28;2.25;;;2.00;;
18507;SDS011;9383;50.928;12.116;2023-04-12T04:45:56;2.25;;;2.03;;
18507;SDS011;9383;50.928;12.116;2023-04-12T04:48:23;3.08;;;2.10;;
18507;SDS011;9383;50.928;12.116;2023-04-12T04:50:50;2.63;;;2.30;;
18507;SDS011;9383;50.928;12.116;2023-04-12T04:53:18;2.60;;;2.40;;
18507;SDS011;9383;50.928;12.116;2023-04-12T04:55:46;2.42;;;2.20;;
18507;SDS011;9383;50.928;12.116;2023-04-12T04:58:15;2.65;;;2.45;;
18507;SDS011;9383;50.928;12.116;2023-04-12T05:00:42;3.30;;;2.17;;
18507;SDS011;9383;50.928;12.116;2023-04-12T05:03:14;2.60;;;2.40;;
18507;SDS011;9383;50.928;12.116;2023-04-12T05:05:42;3.78;;;2.40;;
18507;SDS011;9383;50.928;12.116;2023-04-12T05:08:09;3.30;;;2.80;;
18507;SDS011;9383;50.928;12.116;2023-04-12T05:10:35;2.40;;;2.20;;
18507;SDS011;9383;50.928;12.116;2023-04-12T05:13:02;2.83;;;2.33;;
18507;SDS011;9383;50.928;12.116;2023-04-12T05:15:29;2.33;;;2.13;;
18507;SDS011;9383;50.928;12.116;2023-04-12T05:17:59;4.88;;;2.50;;
18507;SDS011;9383;50.928;12.116;2023-04-12T05:20:26;5.03;;;3.00;;
18507;SDS011;9383;50.928;12.116;2023-04-12T05:22:52;2.83;;;2.35;;
18507;SDS011;9383;50.928;12.116;2023-04-12T05:25:19;4.10;;;2.65;;
18507;SDS011;9383;50.928;12.116;2023-04-12T05:27:46;3.28;;;1.98;;
18507;SDS011;9383;50.928;12.116;2023-04-12T05:30:13;4.93;;;2.45;;
18507;SDS011;9383;50.928;12.116;2023-04-12T05:32:39;2.40;;;2.20;;
18507;SDS011;9383;50.928;12.116;2023-04-12T05:35:06;2.45;;;2.17;;
18507;SDS011;9383;50.928;12.116;2023-04-12T05:37:32;2.67;;;2.33;;
18507;SDS011;9383;50.928;12.116;2023-04-12T05:39:59;2.75;;;2.55;;
18507;SDS011;9383;50.928;12.116;2023-04-12T05:42:26;4.95;;;2.80;;
18507;SDS011;9383;50.928;12.116;2023-04-12T05:44:53;3.45;;;2.97;;
18507;SDS011;9383;50.928;12.116;2023-04-12T05:47:20;5.72;;;2.70;;
18507;SDS011;9383;50.928;12.116;2023-04-12T05:49:47;3.50;;;3.08;;
18507;SDS011;9383;50.928;12.116;2023-04-12T05:52:13;3.88;;;2.92;;
18507;SDS011;9383;50.928;12.116;2023-04-12T05:54:40;4.10;;;2.40;;
18507;SDS011;9383;50.928;12.116;2023-04-12T05:57:07;4.85;;;2.42;;
18507;SDS011;9383;50.928;12.116;2023-04-12T05:59:33;3.03;;;1.95;;
18507;SDS011;9383;50.928;12.116;2023-04-12T06:02:01;2.70;;;2.10;;
18507;SDS011;9383;50.928;12.116;2023-04-12T06:04:30;3.35;;;2.20;;
18507;SDS011;9383;50.928;12.116;2023-04-12T06:06:57;2.25;;;2.00;;
18507;SDS011;9383;50.928;12.116;2023-04-12T06:09:24;3.20;;;2.40;;
18507;SDS011;9383;50.928;12.116;2023-04-12T06:11:51;2.47;;;2.28;;
18507;SDS011;9383;50.928;12.116;2023-04-12T06:14:18;3.17;;;2.40;;
18507;SDS011;9383;50.928;12.116;2023-04-12T06:16:45;2.95;;;2.45;;
18507;SDS011;9383;50.928;12.116;2023-04-12T06:19:11;3.97;;;2.30;;
18507;SDS011;9383;50.928;12.116;2023-04-12T06:21:37;2.40;;;2.03;;
18507;SDS011;9383;50.928;12.116;2023-04-12T06:24:05;3.22;;;2.42;;
18507;SDS011;9383;50.928;12.116;2023-04-12T06:26:32;5.82;;;2.45;;
18507;SDS011;9383;50.928;12.116;2023-04-12T06:28:59;2.53;;;2.33;;
18507;SDS011;9383;50.928;12.116;2023-04-12T06:31:26;5.50;;;2.35;;
18507;SDS011;9383;50.928;12.116;2023-04-12T06:33:55;4.05;;;2.30;;
18507;SDS011;9383;50.928;12.116;2023-04-12T06:36:21;2.28;;;2.08;;
18507;SDS011;9383;50.928;12.116;2023-04-12T06:38:48;2.50;;;2.30;;
18507;SDS011;9383;50.928;12.116;2023-04-12T06:41:15;2.33;;;2.13;;
18507;SDS011;9383;50.928;12.116;2023-04-12T06:43:42;2.88;;;2.13;;
18507;SDS011;9383;50.928;12.116;2023-04-12T06:46:08;3.20;;;2.20;;
18507;SDS011;9383;50.928;12.116;2023-04-12T06:48:35;2.67;;;2.20;;
18507;SDS011;9383;50.928;12.116;2023-04-12T06:51:04;2.25;;;2.05;;
18507;SDS011;9383;50.928;12.116;2023-04-12T06:53:32;3.28;;;2.35;;
18507;SDS011;9383;50.928;12.116;2023-04-12T06:56:03;3.47;;;1.85;;
18507;SDS011;9383;50.928;12.116;2023-04-12T06:58:30;3.55;;;1.70;;
18507;SDS011;9383;50.928;12.116;2023-04-12T07:01:03;3.13;;;2.15;;
18507;SDS011;9383;50.928;12.116;2023-04-12T07:03:31;4.75;;;2.20;;
18507;SDS011;9383;50.928;12.116;2023-04-12T07:05:58;1.58;;;1.30;;
18507;SDS011;9383;50.928;12.116;2023-04-12T07:08:27;3.70;;;1.80;;
18507;SDS011;9383;50.928;12.116;2023-04-12T07:10:54;4.50;;;1.77;;
18507;SDS011;9383;50.928;12.116;2023-04-12T07:13:22;4.63;;;1.88;;
18507;SDS011;9383;50.928;12.116;2023-04-12T07:15:48;2.72;;;1.83;;
18507;SDS011;9383;50.928;12.116;2023-04-12T07:18:17;3.72;;;1.85;;
18507;SDS011;9383;50.928;12.116;2023-04-12T07:20:47;2.25;;;2.05;;
18507;SDS011;9383;50.928;12.116;2023-04-12T07:23:15;3.10;;;2.13;;
18507;SDS011;9383;50.928;12.116;2023-04-12T07:25:41;4.43;;;2.10;;
18507;SDS011;9383;50.928;12.116;2023-04-12T07:28:08;3.38;;;1.90;;
18507;SDS011;9383;50.928;12.116;2023-04-12T07:30:37;3.58;;;1.80;;
18507;SDS011;9383;50.928;12.116;2023-04-12T07:33:04;3.13;;;2.13;;
18507;SDS011;9383;50.928;12.116;2023-04-12T07:35:31;3.17;;;2.30;;
18507;SDS011;9383;50.928;12.116;2023-04-12T07:37:58;2.58;;;2.03;;
18507;SDS011;9383;50.928;12.116;2023-04-12T07:40:27;3.92;;;1.90;;
18507;SDS011;9383;50.928;12.116;2023-04-12T07:42:54;3.08;;;1.80;;
18507;SDS011;9383;50.928;12.116;2023-04-12T07:45:20;3.53;;;1.83;;
18507;SDS011;9383;50.928;12.116;2023-04-12T07:47:47;3.63;;;2.03;;
18507;SDS011;9383;50.928;12.116;2023-04-12T07:50:14;2.75;;;1.98;;
18507;SDS011;9383;50.928;12.116;2023-04-12T07:52:41;2.08;;;1.75;;
18507;SDS011;9383;50.928;12.116;2023-04-12T07:57:57;4.50;;;2.00;;
18507;SDS011;9383;50.928;12.116;2023-04-12T08:00:25;3.30;;;2.20;;
18507;SDS011;9383;50.928;12.116;2023-04-12T08:02:52;1.75;;;1.60;;
18507;SDS011;9383;50.928;12.116;2023-04-12T08:05:19;5.03;;;1.90;;
18507;SDS011;9383;50.928;12.116;2023-04-12T08:07:48;3.13;;;1.88;;
18507;SDS011;9383;50.928;12.116;2023-04-12T08:10:15;1.80;;;1.70;;
18507;SDS011;9383;50.928;12.116;2023-04-12T08:12:42;2.67;;;1.98;;
18507;SDS011;9383;50.928;12.116;2023-04-12T08:15:09;2.35;;;1.55;;
18507;SDS011;9383;50.928;12.116;2023-04-12T08:17:37;3.08;;;1.67;;
18507;SDS011;9383;50.928;12.116;2023-04-12T08:20:04;3.13;;;1.85;;
18507;SDS011;9383;50.928;12.116;2023-04-12T08:22:31;1.63;;;1.52;;
18507;SDS011;9383;50.928;12.116;2023-04-12T08:24:58;3.75;;;1.90;;
18507;SDS011;9383;50.928;12.116;2023-04-12T08:27:26;3.28;;;1.73;;
18507;SDS011;9383;50.928;12.116;2023-04-12T08:29:53;2.35;;;1.70;;
18507;SDS011;9383;50.928;12.116;2023-04-12T08:32:20;3.15;;;2.03;;
18507;SDS011;9383;50.928;12.116;2023-04-12T08:34:47;3.92;;;1.70;;
18507;SDS011;9383;50.928;12.116;2023-04-12T08:37:14;1.98;;;1.80;;
18507;SDS011;9383;50.928;12.116;2023-04-12T08:39:41;3.15;;;1.70;;
18507;SDS011;9383;50.928;12.116;2023-04-12T08:42:08;3.88;;;1.83;;
18507;SDS011;9383;50.928;12.116;2023-04-12T08:44:37;2.83;;;1.80;;
18507;SDS011;9383;50.928;12.116;2023-04-12T08:47:05;2.67;;;1.52;;
18507;SDS011;9383;50.928;12.116;2023-04-12T08:49:35;3.22;;;2.03;;
18507;SDS011;9383;50.928;12.116;2023-04-12T08:52:09;3.65;;;2.15;;
18507;SDS011;9383;50.928;12.116;2023-04-12T08:54:36;4.10;;;1.88;;
18507;SDS011;9383;50.928;12.116;2023-04-12T08:57:03;1.70;;;1.60;;
18507;SDS011;9383;50.928;12.116;2023-04-12T08:59:33;2.53;;;1.65;;
18507;SDS011;9383;50.928;12.116;2023-04-12T09:02:04;4.78;;;1.80;;
18507;SDS011;9383;50.928;12.116;2023-04-12T09:04:30;3.58;;;1.60;;
18507;SDS011;9383;50.928;12.116;2023-04-12T09:06:58;4.68;;;1.88;;
18507;SDS011;9383;50.928;12.116;2023-04-12T09:12:08;2.08;;;1.45;;
18507;SDS011;9383;50.928;12.116;2023-04-12T09:14:37;3.17;;;1.50;;
18507;SDS011;9383;50.928;12.116;2023-04-12T09:17:17;2.88;;;1.83;;
18507;SDS011;9383;50.928;12.116;2023-04-12T09:19:47;2.13;;;1.75;;
18507;SDS011;9383;50.928;12.116;2023-04-12T09:22:13;2.40;;;1.60;;
18507;SDS011;9383;50.928;12.116;2023-04-12T09:24:50;1.67;;;1.27;;
18507;SDS011;9383;50.928;12.116;2023-04-12T09:27:18;2.45;;;1.48;;
18507;SDS011;9383;50.928;12.116;2023-04-12T09:29:47;1.98;;;1.58;;
18507;SDS011;9383;50.928;12.116;2023-04-12T09:32:23;3.47;;;1.60;;
18507;SDS011;9383;50.928;12.116;2023-04-12T09:34:55;2.80;;;1.90;;
18507;SDS011;9383;50.928;12.116;2023-04-12T09:37:22;4.00;;;1.90;;
18507;SDS011;9383;50.928;12.116;2023-04-12T09:40:06;1.98;;;1.48;;
18507;SDS011;9383;50.928;12.116;2023-04-12T09:42:34;4.18;;;1.75;;
18507;SDS011;9383;50.928;12.116;2023-04-12T09:47:57;2.45;;;1.55;;
18507;SDS011;9383;50.928;12.116;2023-04-12T09:50:26;3.67;;;1.70;;
18507;SDS011;9383;50.928;12.116;2023-04-12T09:52:55;3.28;;;1.60;;
18507;SDS011;9383;50.928;12.116;2023-04-12T09:55:23;2.75;;;1.60;;
18507;SDS011;9383;50.928;12.116;2023-04-12T09:57:51;1.77;;;1.63;;
18507;SDS011;9383;50.928;12.116;2023-04-12T10:00:22;2.97;;;1.70;;
18507;SDS011;9383;50.928;12.116;2023-04-12T10:02:51;5.68;;;1.90;;
18507;SDS011;9383;50.928;12.116;2023-04-12T10:05:19;3.05;;;1.65;;
18507;SDS011;9383;50.928;12.116;2023-04-12T10:07:48;3.05;;;1.67;;
18507;SDS011;9383;50.928;12.116;2023-04-12T10:10:15;2.08;;;1.52;;
18507;SDS011;9383;50.928;12.116;2023-04-12T10:12:43;1.85;;;1.75;;
18507;SDS011;9383;50.928;12.116;2023-04-12T10:15:11;1.85;;;1.75;;
18507;SDS011;9383;50.928;12.116;2023-04-12T10:17:42;2.47;;;1.70;;
18507;SDS011;9383;50.928;12.116;2023-04-12T10:20:10;2.15;;;1.55;;
18507;SDS011;9383;50.928;12.116;2023-04-12T10:22:39;1.67;;;1.42;;
18507;SDS011;9383;50.928;12.116;2023-04-12T10:25:09;2.83;;;1.73;;
18507;SDS011;9383;50.928;12.116;2023-04-12T10:27:38;1.75;;;1.20;;
18507;SDS011;9383;50.928;12.116;2023-04-12T10:30:17;2.08;;;1.50;;
18507;SDS011;9383;50.928;12.116;2023-04-12T10:32:45;1.90;;;1.20;;
18507;SDS011;9383;50.928;12.116;2023-04-12T10:35:12;2.72;;;1.13;;
18507;SDS011;9383;50.928;12.116;2023-04-12T10:38:21;1.88;;;1.20;;
18507;SDS011;9383;50.928;12.116;2023-04-12T10:40:29;2.88;;;1.70;;
18507;SDS011;9383;50.928;12.116;2023-04-12T10:45:48;1.92;;;1.27;;
18507;SDS011;9383;50.928;12.116;2023-04-12T10:48:28;1.30;;;1.20;;
18507;SDS011;9383;50.928;12.116;2023-04-12T10:53:45;2.83;;;1.42;;
18507;SDS011;9383;50.928;12.116;2023-04-12T10:58:58;3.67;;;1.40;;
18507;SDS011;9383;50.928;12.116;2023-04-12T11:01:28;1.90;;;1.30;;
18507;SDS011;9383;50.928;12.116;2023-04-12T11:04:12;1.40;;;1.27;;
18507;SDS011;9383;50.928;12.116;2023-04-12T11:06:48;1.92;;;1.33;;
18507;SDS011;9383;50.928;12.116;2023-04-12T11:09:26;3.05;;;1.20;;
18507;SDS011;9383;50.928;12.116;2023-04-12T11:14:36;1.20;;;1.10;;
18507;SDS011;9383;50.928;12.116;2023-04-12T11:19:40;1.75;;;1.15;;
18507;SDS011;9383;50.928;12.116;2023-04-12T11:22:11;2.28;;;1.17;;
18507;SDS011;9383;50.928;12.116;2023-04-12T11:25:14;1.63;;;1.50;;
18507;SDS011;9383;50.928;12.116;2023-04-12T11:27:33;2.40;;;1.30;;
18507;SDS011;9383;50.928;12.116;2023-04-12T11:30:02;1.42;;;1.23;;
18507;SDS011;9383;50.928;12.116;2023-04-12T11:32:43;1.50;;;1.40;;
18507;SDS011;9383;50.928;12.116;2023-04-12T11:35:10;1.20;;;1.10;;
18507;SDS011;9383;50.928;12.116;2023-04-12T11:37:40;1.92;;;1.50;;
18507;SDS011;9383;50.928;12.116;2023-04-12T11:40:08;2.90;;;1.60;;
18507;SDS011;9383;50.928;12.116;2023-04-12T11:42:35;1.80;;;1.45;;
18507;SDS011;9383;50.928;12.116;2023-04-12T11:45:05;1.42;;;1.30;;
18507;SDS011;9383;50.928;12.116;2023-04-12T11:47:33;1.50;;;1.40;;
18507;SDS011;9383;50.928;12.116;2023-04-12T11:50:00;1.17;;;1.10;;
18507;SDS011;9383;50.928;12.116;2023-04-12T11:52:27;1.60;;;1.50;;
18507;SDS011;9383;50.928;12.116;2023-04-12T11:54:55;1.52;;;1.42;;
18507;SDS011;9383;50.928;12.116;2023-04-12T11:57:24;2.17;;;1.45;;
18507;SDS011;9383;50.928;12.116;2023-04-12T11:59:55;2.38;;;1.33;;
18507;SDS011;9383;50.928;12.116;2023-04-12T12:02:23;1.70;;;1.60;;
18507;SDS011;9383;50.928;12.116;2023-04-12T12:04:51;1.45;;;1.38;;
18507;SDS011;9383;50.928;12.116;2023-04-12T12:07:20;1.70;;;1.50;;
18507;SDS011;9383;50.928;12.116;2023-04-12T12:09:48;4.20;;;1.83;;
18507;SDS011;9383;50.928;12.116;2023-04-12T12:12:15;2.92;;;1.80;;
18507;SDS011;9383;50.928;12.116;2023-04-12T12:14:43;1.88;;;1.70;;
18507;SDS011;9383;50.928;12.116;2023-04-12T12:17:13;2.25;;;2.00;;
18507;SDS011;9383;50.928;12.116;2023-04-12T12:19:41;1.83;;;1.70;;
18507;SDS011;9383;50.928;12.116;2023-04-12T12:24:49;2.95;;;1.50;;
18507;SDS011;9383;50.928;12.116;2023-04-12T12:27:23;1.73;;;1.63;;
18507;SDS011;9383;50.928;12.116;2023-04-12T12:30:02;2.22;;;1.88;;
18507;SDS011;9383;50.928;12.116;2023-04-12T12:32:35;1.70;;;1.60;;
18507;SDS011;9383;50.928;12.116;2023-04-12T12:35:09;2.30;;;1.80;;
18507;SDS011;9383;50.928;12.116;2023-04-12T12:37:46;1.77;;;1.67;;
18507;SDS011;9383;50.928;12.116;2023-04-12T12:40:17;1.60;;;1.50;;
18507;SDS011;9383;50.928;12.116;2023-04-12T12:42:53;1.70;;;1.60;;
18507;SDS011;9383;50.928;12.116;2023-04-12T12:45:21;1.70;;;1.60;;
18507;SDS011;9383;50.928;12.116;2023-04-12T12:47:57;2.65;;;1.85;;
18507;SDS011;9383;50.928;12.116;2023-04-12T12:50:29;1.95;;;1.83;;
18507;SDS011;9383;50.928;12.116;2023-04-12T12:53:00;1.45;;;1.35;;
18507;SDS011;9383;50.928;12.116;2023-04-12T12:55:29;2.45;;;1.67;;
18507;SDS011;9383;50.928;12.116;2023-04-12T12:57:57;2.13;;;1.50;;
18507;SDS011;9383;50.928;12.116;2023-04-12T13:00:25;2.17;;;1.38;;
18507;SDS011;9383;50.928;12.116;2023-04-12T13:02:53;1.73;;;1.55;;
18507;SDS011;9383;50.928;12.116;2023-04-12T13:05:20;2.30;;;1.70;;
18507;SDS011;9383;50.928;12.116;2023-04-12T13:07:47;1.52;;;1.42;;
18507;SDS011;9383;50.928;12.116;2023-04-12T13:10:14;1.73;;;1.63;;
18507;SDS011;9383;50.928;12.116;2023-04-12T13:12:40;1.88;;;1.50;;
18507;SDS011;9383;50.928;12.116;2023-04-12T13:15:07;2.25;;;1.73;;
18507;SDS011;9383;50.928;12.116;2023-04-12T13:17:36;1.80;;;1.60;;
18507;SDS011;9383;50.928;12.116;2023-04-12T13:20:03;1.80;;;1.40;;
18507;SDS011;9383;50.928;12.116;2023-04-12T13:22:29;1.40;;;1.30;;
18507;SDS011;9383;50.928;12.116;2023-04-12T13:24:56;2.17;;;1.40;;
18507;SDS011;9383;50.928;12.116;2023-04-12T13:27:23;1.38;;;1.27;;
18507;SDS011;9383;50.928;12.116;2023-04-12T13:29:52;1.00;;;1.00;;
18507;SDS011;9383;50.928;12.116;2023-04-12T13:32:19;1.60;;;1.05;;
18507;SDS011;9383;50.928;12.116;2023-04-12T13:34:45;1.10;;;1.10;;
18507;SDS011;9383;50.928;12.116;2023-04-12T13:37:12;1.00;;;1.00;;
18507;SDS011;9383;50.928;12.116;2023-04-12T13:39:38;1.02;;;1.00;;
18507;SDS011;9383;50.928;12.116;2023-04-12T13:42:05;1.10;;;1.10;;
18507;SDS011;9383;50.928;12.116;2023-04-12T13:44:33;1.05;;;1.05;;
18507;SDS011;9383;50.928;12.116;2023-04-12T13:47:00;1.00;;;1.00;;
18507;SDS011;9383;50.928;12.116;2023-04-12T13:49:27;1.00;;;1.00;;
18507;SDS011;9383;50.928;12.116;2023-04-12T13:51:54;1.73;;;1.40;;
18507;SDS011;9383;50.928;12.116;2023-04-12T13:54:21;1.23;;;1.23;;
18507;SDS011;9383;50.928;12.116;2023-04-12T13:56:48;1.00;;;1.00;;
18507;SDS011;9383;50.928;12.116;2023-04-12T13:59:14;1.10;;;1.10;;
18507;SDS011;9383;50.928;12.116;2023-04-12T14:01:42;1.00;;;1.00;;
18507;SDS011;9383;50.928;12.116;2023-04-12T14:04:08;1.33;;;1.20;;
18507;SDS011;9383;50.928;12.116;2023-04-12T14:06:36;1.10;;;1.10;;
18507;SDS011;9383;50.928;12.116;2023-04-12T14:09:03;1.10;;;0.98;;
18507;SDS011;9383;50.928;12.116;2023-04-12T14:11:44;1.20;;;1.13;;
18507;SDS011;9383;50.928;12.116;2023-04-12T14:14:11;1.20;;;1.20;;
18507;SDS011;9383;50.928;12.116;2023-04-12T14:16:38;1.00;;;1.00;;
18507;SDS011;9383;50.928;12.116;2023-04-12T14:19:05;1.27;;;1.17;;
18507;SDS011;9383;50.928;12.116;2023-04-12T14:21:33;1.13;;;1.10;;
18507;SDS011;9383;50.928;12.116;2023-04-12T14:23:59;1.13;;;1.13;;
18507;SDS011;9383;50.928;12.116;2023-04-12T14:26:26;2.55;;;1.25;;
18507;SDS011;9383;50.928;12.116;2023-04-12T14:28:52;0.85;;;0.85;;
18507;SDS011;9383;50.928;12.116;2023-04-12T14:31:19;1.25;;;1.15;;
18507;SDS011;9383;50.928;12.116;2023-04-12T14:33:45;1.80;;;1.25;;
18507;SDS011;9383;50.928;12.116;2023-04-12T14:36:12;1.35;;;1.00;;
18507;SDS011;9383;50.928;12.116;2023-04-12T14:38:39;1.17;;;1.13;;
18507;SDS011;9383;50.928;12.116;2023-04-12T14:41:06;1.27;;;1.08;;
18507;SDS011;9383;50.928;12.116;2023-04-12T14:43:34;1.20;;;1.20;;
18507;SDS011;9383;50.928;12.116;2023-04-12T14:46:00;0.93;;;0.93;;
18507;SDS011;9383;50.928;12.116;2023-04-12T14:48:27;1.15;;;1.10;;
18507;SDS011;9383;50.928;12.116;2023-04-12T14:50:53;1.23;;;1.20;;
18507;SDS011;9383;50.928;12.116;2023-04-12T14:53:20;1.42;;;1.20;;
18507;SDS011;9383;50.928;12.116;2023-04-12T14:55:47;1.00;;;1.00;;
18507;SDS011;9383;50.928;12.116;2023-04-12T14:58:15;1.00;;;1.00;;
18507;SDS011;9383;50.928;12.116;2023-04-12T15:00:42;1.02;;;1.02;;
18507;SDS011;9383;50.928;12.116;2023-04-12T15:03:08;1.05;;;1.05;;
18507;SDS011;9383;50.928;12.116;2023-04-12T15:05:39;2.22;;;1.10;;
18507;SDS011;9383;50.928;12.116;2023-04-12T15:08:05;0.98;;;0.98;;
18507;SDS011;9383;50.928;12.116;2023-04-12T15:10:32;1.00;;;1.00;;
18507;SDS011;9383;50.928;12.116;2023-04-12T15:12:59;1.13;;;1.00;;
18507;SDS011;9383;50.928;12.116;2023-04-12T15:15:26;0.90;;;0.90;;
18507;SDS011;9383;50.928;12.116;2023-04-12T15:17:52;0.93;;;0.93;;
18507;SDS011;9383;50.928;12.116;2023-04-12T15:20:19;1.42;;;1.10;;
18507;SDS011;9383;50.928;12.116;2023-04-12T15:22:45;1.27;;;1.17;;
18507;SDS011;9383;50.928;12.116;2023-04-12T15:25:12;0.95;;;0.95;;
18507;SDS011;9383;50.928;12.116;2023-04-12T15:27:39;0.82;;;0.82;;